sensor_id;sensor_type;location;lat;lon;timestamp;pressure;altitude;pressure_sealevel;temperature;humidity
21185;BME280;18176;49.502;11.754;2023-02-23T00:03:07;96583.22;;;9.37;79.69
21185;BME280;18176;49.502;11.754;2023-02-23T00:07:08;96595.88;;;9.35;80.00
21185;BME280;18176;49.502;11.754;2023-02-23T00:11:12;96587.25;;;9.39;79.81
21185;BME280;18176;49.502;11.754;2023-02-23T00:15:13;96595.16;;;9.51;79.49
21185;BME280;18176;49.502;11.754;2023-02-23T00:19:15;96592.97;;;9.36;80.11
21185;BME280;18176;49.502;11.754;2023-02-23T00:23:18;96588.25;;;9.38;79.64
21185;BME280;18176;49.502;11.754;2023-02-23T00:27:22;96579.31;;;9.28;79.80
21185;BME280;18176;49.502;11.754;2023-02-23T00:31:24;96579.41;;;9.21;80.75
21185;BME280;18176;49.502;11.754;2023-02-23T00:35:26;96572.53;;;9.20;80.41
21185;BME280;18176;49.502;11.754;2023-02-23T00:39:27;96579.63;;;9.08;80.89
21185;BME280;18176;49.502;11.754;2023-02-23T00:43:33;96578.13;;;9.00;81.32
21185;BME280;18176;49.502;11.754;2023-02-23T00:47:34;96574.44;;;9.01;81.21
21185;BME280;18176;49.502;11.754;2023-02-23T00:51:36;96559.97;;;8.92;81.02
21185;BME280;18176;49.502;11.754;2023-02-23T00:55:40;96569.94;;;8.79;81.69
21185;BME280;18176;49.502;11.754;2023-02-23T00:59:43;96571.34;;;8.81;81.69
21185;BME280;18176;49.502;11.754;2023-02-23T01:03:45;96579.69;;;8.78;82.12
21185;BME280;18176;49.502;11.754;2023-02-23T01:07:45;96582.06;;;8.68;82.36
21185;BME280;18176;49.502;11.754;2023-02-23T01:11:47;96575.66;;;8.64;82.21
21185;BME280;18176;49.502;11.754;2023-02-23T01:15:51;96586.34;;;8.69;82.00
21185;BME280;18176;49.502;11.754;2023-02-23T01:19:56;96574.63;;;8.65;81.85
21185;BME280;18176;49.502;11.754;2023-02-23T01:23:58;96568.16;;;8.61;81.73
21185;BME280;18176;49.502;11.754;2023-02-23T01:27:59;96574.16;;;8.68;81.80
21185;BME280;18176;49.502;11.754;2023-02-23T01:32:03;96571.50;;;8.68;81.52
21185;BME280;18176;49.502;11.754;2023-02-23T01:36:05;96565.66;;;8.66;81.50
21185;BME280;18176;49.502;11.754;2023-02-23T01:40:12;96572.78;;;8.77;80.82
21185;BME280;18176;49.502;11.754;2023-02-23T01:49:04;96571.88;;;8.72;81.06
21185;BME280;18176;49.502;11.754;2023-02-23T01:53:07;96554.38;;;8.59;80.96
21185;BME280;18176;49.502;11.754;2023-02-23T01:57:13;96568.28;;;8.66;81.34
21185;BME280;18176;49.502;11.754;2023-02-23T02:01:15;96568.88;;;8.68;81.23
21185;BME280;18176;49.502;11.754;2023-02-23T02:05:20;96554.28;;;8.66;81.12
21185;BME280;18176;49.502;11.754;2023-02-23T02:09:22;96557.41;;;8.74;80.70
21185;BME280;18176;49.502;11.754;2023-02-23T02:13:31;96560.97;;;8.80;80.64
21185;BME280;18176;49.502;11.754;2023-02-23T02:17:44;96560.50;;;8.71;81.45
21185;BME280;18176;49.502;11.754;2023-02-23T02:22:25;96569.69;;;8.69;82.00
21185;BME280;18176;49.502;11.754;2023-02-23T02:26:44;96571.88;;;8.72;81.65
21185;BME280;18176;49.502;11.754;2023-02-23T02:31:47;96567.50;;;8.77;81.61
21185;BME280;18176;49.502;11.754;2023-02-23T02:41:10;96564.56;;;8.85;80.99
21185;BME280;18176;49.502;11.754;2023-02-23T02:45:21;96555.72;;;8.91;80.88
21185;BME280;18176;49.502;11.754;2023-02-23T02:49:31;96550.31;;;8.86;80.75
21185;BME280;18176;49.502;11.754;2023-02-23T02:53:44;96552.13;;;8.74;81.33
21185;BME280;18176;49.502;11.754;2023-02-23T02:57:51;96552.78;;;8.58;81.96
21185;BME280;18176;49.502;11.754;2023-02-23T03:01:59;96554.28;;;8.54;82.15
21185;BME280;18176;49.502;11.754;2023-02-23T03:06:16;96551.00;;;8.40;81.98
21185;BME280;18176;49.502;11.754;2023-02-23T03:10:41;96575.00;;;8.39;82.02
21185;BME280;18176;49.502;11.754;2023-02-23T03:15:12;96565.34;;;8.33;82.48
21185;BME280;18176;49.502;11.754;2023-02-23T03:19:36;96567.09;;;8.21;82.94
21185;BME280;18176;49.502;11.754;2023-02-23T03:24:03;96568.59;;;8.17;82.65
21185;BME280;18176;49.502;11.754;2023-02-23T03:28:24;96572.09;;;8.11;82.71
21185;BME280;18176;49.502;11.754;2023-02-23T03:32:49;96578.41;;;8.10;82.40
21185;BME280;18176;49.502;11.754;2023-02-23T03:37:14;96560.75;;;7.92;82.89
21185;BME280;18176;49.502;11.754;2023-02-23T03:41:32;96571.69;;;7.96;83.18
21185;BME280;18176;49.502;11.754;2023-02-23T03:45:48;96575.22;;;7.90;83.40
21185;BME280;18176;49.502;11.754;2023-02-23T03:50:11;96570.81;;;7.84;83.75
21185;BME280;18176;49.502;11.754;2023-02-23T03:54:33;96571.72;;;7.77;83.88
21185;BME280;18176;49.502;11.754;2023-02-23T03:58:51;96576.97;;;7.77;84.33
21185;BME280;18176;49.502;11.754;2023-02-23T04:03:11;96579.38;;;7.79;83.88
21185;BME280;18176;49.502;11.754;2023-02-23T04:07:30;96569.50;;;7.74;83.80
21185;BME280;18176;49.502;11.754;2023-02-23T04:11:50;96578.00;;;7.76;84.02
21185;BME280;18176;49.502;11.754;2023-02-23T04:16:11;96574.19;;;7.72;84.41
21185;BME280;18176;49.502;11.754;2023-02-23T04:20:11;96574.19;;;7.72;84.46
21185;BME280;18176;49.502;11.754;2023-02-23T04:24:15;96578.16;;;7.82;83.93
21185;BME280;18176;49.502;11.754;2023-02-23T04:28:17;96572.06;;;7.81;83.78
21185;BME280;18176;49.502;11.754;2023-02-23T04:32:19;96585.16;;;7.69;84.43
21185;BME280;18176;49.502;11.754;2023-02-23T04:36:20;96577.78;;;7.78;84.11
21185;BME280;18176;49.502;11.754;2023-02-23T04:40:24;96578.56;;;7.78;83.90
21185;BME280;18176;49.502;11.754;2023-02-23T04:44:24;96578.56;;;7.78;83.69
21185;BME280;18176;49.502;11.754;2023-02-23T04:48:26;96583.84;;;7.78;83.56
21185;BME280;18176;49.502;11.754;2023-02-23T04:52:27;96589.34;;;7.77;83.44
21185;BME280;18176;49.502;11.754;2023-02-23T04:56:31;96594.13;;;7.68;83.39
21185;BME280;18176;49.502;11.754;2023-02-23T05:00:37;96585.75;;;7.53;83.73
21185;BME280;18176;49.502;11.754;2023-02-23T05:04:39;96588.97;;;7.55;83.82
21185;BME280;18176;49.502;11.754;2023-02-23T05:08:41;96583.66;;;7.62;83.60
21185;BME280;18176;49.502;11.754;2023-02-23T05:12:45;96588.53;;;7.58;83.71
21185;BME280;18176;49.502;11.754;2023-02-23T05:16:47;96567.44;;;7.58;83.15
21185;BME280;18176;49.502;11.754;2023-02-23T05:20:47;96592.94;;;7.64;83.64
21185;BME280;18176;49.502;11.754;2023-02-23T05:24:50;96579.63;;;7.59;83.86
21185;BME280;18176;49.502;11.754;2023-02-23T05:28:56;96577.41;;;7.74;83.34
21185;BME280;18176;49.502;11.754;2023-02-23T05:32:57;96579.16;;;7.62;83.65
21185;BME280;18176;49.502;11.754;2023-02-23T05:36:57;96586.78;;;7.70;83.36
21185;BME280;18176;49.502;11.754;2023-02-23T05:40:58;96593.81;;;7.76;82.50
21185;BME280;18176;49.502;11.754;2023-02-23T05:45:07;96589.94;;;7.61;82.84
21185;BME280;18176;49.502;11.754;2023-02-23T05:49:12;96596.59;;;8.00;81.34
21185;BME280;18176;49.502;11.754;2023-02-23T05:53:13;96589.97;;;8.09;80.46
21185;BME280;18176;49.502;11.754;2023-02-23T05:57:13;96596.44;;;8.31;79.42
21185;BME280;18176;49.502;11.754;2023-02-23T06:01:17;96570.78;;;8.02;79.60
21185;BME280;18176;49.502;11.754;2023-02-23T06:05:18;96603.63;;;8.06;80.21
21185;BME280;18176;49.502;11.754;2023-02-23T06:09:19;96613.91;;;7.77;81.87
21185;BME280;18176;49.502;11.754;2023-02-23T06:13:20;96604.81;;;7.92;81.72
21185;BME280;18176;49.502;11.754;2023-02-23T06:17:27;96609.63;;;7.95;81.99
21185;BME280;18176;49.502;11.754;2023-02-23T06:21:30;96609.56;;;8.01;81.56
21185;BME280;18176;49.502;11.754;2023-02-23T06:25:30;96620.41;;;8.11;81.49
21185;BME280;18176;49.502;11.754;2023-02-23T06:29:31;96624.56;;;8.19;81.09
21185;BME280;18176;49.502;11.754;2023-02-23T06:33:36;96618.13;;;8.33;80.72
21185;BME280;18176;49.502;11.754;2023-02-23T06:37:37;96625.59;;;8.36;81.52
21185;BME280;18176;49.502;11.754;2023-02-23T06:41:39;96627.94;;;8.44;82.69
21185;BME280;18176;49.502;11.754;2023-02-23T06:45:40;96631.53;;;8.61;81.53
21185;BME280;18176;49.502;11.754;2023-02-23T06:49:43;96630.22;;;8.70;80.51
21185;BME280;18176;49.502;11.754;2023-02-23T06:53:44;96631.63;;;8.84;79.95
21185;BME280;18176;49.502;11.754;2023-02-23T06:57:47;96638.97;;;8.82;79.96
21185;BME280;18176;49.502;11.754;2023-02-23T07:01:47;96639.22;;;8.92;79.78
21185;BME280;18176;49.502;11.754;2023-02-23T07:05:51;96650.75;;;9.09;79.54
21185;BME280;18176;49.502;11.754;2023-02-23T07:09:53;96655.16;;;9.15;78.81
21185;BME280;18176;49.502;11.754;2023-02-23T07:13:56;96656.56;;;9.30;77.83
21185;BME280;18176;49.502;11.754;2023-02-23T07:17:57;96655.50;;;9.31;77.47
21185;BME280;18176;49.502;11.754;2023-02-23T07:22:00;96654.13;;;9.40;78.08
21185;BME280;18176;49.502;11.754;2023-02-23T07:26:01;96651.28;;;9.53;77.47
21185;BME280;18176;49.502;11.754;2023-02-23T07:30:02;96653.22;;;9.69;77.46
21185;BME280;18176;49.502;11.754;2023-02-23T07:34:03;96650.06;;;10.18;74.95
21185;BME280;18176;49.502;11.754;2023-02-23T07:38:09;96657.19;;;10.29;74.33
21185;BME280;18176;49.502;11.754;2023-02-23T07:42:09;96657.41;;;10.39;74.91
21185;BME280;18176;49.502;11.754;2023-02-23T07:46:10;96654.28;;;10.71;73.28
21185;BME280;18176;49.502;11.754;2023-02-23T07:50:12;96659.00;;;10.97;72.01
21185;BME280;18176;49.502;11.754;2023-02-23T07:54:16;96658.53;;;11.00;72.30
21185;BME280;18176;49.502;11.754;2023-02-23T07:58:18;96649.06;;;11.20;72.06
21185;BME280;18176;49.502;11.754;2023-02-23T08:02:18;96652.31;;;11.39;71.19
21185;BME280;18176;49.502;11.754;2023-02-23T08:06:19;96656.72;;;11.50;71.30
21185;BME280;18176;49.502;11.754;2023-02-23T08:10:22;96645.88;;;11.68;70.68
21185;BME280;18176;49.502;11.754;2023-02-23T08:14:25;96653.56;;;11.86;69.72
21185;BME280;18176;49.502;11.754;2023-02-23T08:18:27;96658.19;;;12.13;69.23
21185;BME280;18176;49.502;11.754;2023-02-23T08:22:30;96655.72;;;12.28;68.60
21185;BME280;18176;49.502;11.754;2023-02-23T08:26:48;96645.03;;;12.44;67.03
21185;BME280;18176;49.502;11.754;2023-02-23T08:30:49;96656.41;;;12.88;66.88
21185;BME280;18176;49.502;11.754;2023-02-23T08:34:52;96658.84;;;13.16;65.93
21185;BME280;18176;49.502;11.754;2023-02-23T08:38:54;96659.88;;;13.47;64.69
21185;BME280;18176;49.502;11.754;2023-02-23T08:42:59;96658.06;;;13.53;63.54
21185;BME280;18176;49.502;11.754;2023-02-23T08:47:00;96660.25;;;13.56;64.06
21185;BME280;18176;49.502;11.754;2023-02-23T08:51:02;96649.88;;;13.59;62.48
21185;BME280;18176;49.502;11.754;2023-02-23T08:55:07;96664.53;;;13.62;64.07
21185;BME280;18176;49.502;11.754;2023-02-23T08:59:13;96654.78;;;13.41;63.70
21185;BME280;18176;49.502;11.754;2023-02-23T09:03:21;96666.91;;;13.95;63.65
21185;BME280;18176;49.502;11.754;2023-02-23T09:07:22;96661.00;;;14.35;61.83
21185;BME280;18176;49.502;11.754;2023-02-23T09:11:25;96663.03;;;14.74;60.68
21185;BME280;18176;49.502;11.754;2023-02-23T09:15:30;96629.38;;;14.58;60.65
21185;BME280;18176;49.502;11.754;2023-02-23T09:19:32;96664.22;;;15.34;59.49
21185;BME280;18176;49.502;11.754;2023-02-23T09:23:33;96662.13;;;15.51;58.07
21185;BME280;18176;49.502;11.754;2023-02-23T09:27:35;96656.22;;;15.59;57.42
21185;BME280;18176;49.502;11.754;2023-02-23T09:31:40;96661.03;;;15.82;57.44
21185;BME280;18176;49.502;11.754;2023-02-23T09:35:41;96660.94;;;16.23;55.47
21185;BME280;18176;49.502;11.754;2023-02-23T09:39:42;96665.72;;;16.36;56.14
21185;BME280;18176;49.502;11.754;2023-02-23T09:43:50;96665.19;;;16.34;55.75
21185;BME280;18176;49.502;11.754;2023-02-23T09:48:10;96662.47;;;16.54;56.15
21185;BME280;18176;49.502;11.754;2023-02-23T09:52:18;96652.13;;;16.91;55.12
21185;BME280;18176;49.502;11.754;2023-02-23T09:56:30;96664.63;;;17.06;54.66
21185;BME280;18176;49.502;11.754;2023-02-23T10:00:40;96665.91;;;17.13;53.75
21185;BME280;18176;49.502;11.754;2023-02-23T10:04:49;96657.81;;;17.23;53.65
21185;BME280;18176;49.502;11.754;2023-02-23T10:09:10;96668.41;;;17.38;53.49
21185;BME280;18176;49.502;11.754;2023-02-23T10:13:24;96670.56;;;17.36;53.70
21185;BME280;18176;49.502;11.754;2023-02-23T10:17:37;96666.03;;;17.37;53.86
21185;BME280;18176;49.502;11.754;2023-02-23T10:21:46;96663.88;;;16.95;54.72
21185;BME280;18176;49.502;11.754;2023-02-23T10:25:55;96661.50;;;16.20;57.04
21185;BME280;18176;49.502;11.754;2023-02-23T10:29:59;96666.66;;;15.56;59.38
21185;BME280;18176;49.502;11.754;2023-02-23T10:34:09;96659.91;;;15.18;60.89
21185;BME280;18176;49.502;11.754;2023-02-23T10:38:19;96663.94;;;15.20;60.77
21185;BME280;18176;49.502;11.754;2023-02-23T10:42:24;96662.84;;;14.96;61.89
21185;BME280;18176;49.502;11.754;2023-02-23T10:46:38;96652.66;;;14.83;61.92
21185;BME280;18176;49.502;11.754;2023-02-23T10:50:42;96661.06;;;15.72;60.09
21185;BME280;18176;49.502;11.754;2023-02-23T10:54:50;96655.91;;;16.01;58.74
21185;BME280;18176;49.502;11.754;2023-02-23T10:58:53;96650.13;;;16.63;56.92
21185;BME280;18176;49.502;11.754;2023-02-23T11:02:55;96657.31;;;17.21;55.12
21185;BME280;18176;49.502;11.754;2023-02-23T11:07:15;96658.34;;;17.93;53.62
21185;BME280;18176;49.502;11.754;2023-02-23T11:11:25;96637.84;;;18.07;51.64
21185;BME280;18176;49.502;11.754;2023-02-23T11:15:31;96649.81;;;17.91;53.26
21185;BME280;18176;49.502;11.754;2023-02-23T11:19:47;96648.72;;;17.63;53.56
21185;BME280;18176;49.502;11.754;2023-02-23T11:23:50;96639.38;;;17.17;54.74
21185;BME280;18176;49.502;11.754;2023-02-23T11:27:56;96639.81;;;16.90;55.62
21185;BME280;18176;49.502;11.754;2023-02-23T11:31:58;96641.09;;;16.44;56.90
21185;BME280;18176;49.502;11.754;2023-02-23T11:36:17;96635.72;;;16.54;56.78
21185;BME280;18176;49.502;11.754;2023-02-23T11:40:31;96629.91;;;16.37;57.78
21185;BME280;18176;49.502;11.754;2023-02-23T11:44:36;96597.84;;;16.27;57.60
21185;BME280;18176;49.502;11.754;2023-02-23T11:48:48;96621.44;;;16.04;58.78
21185;BME280;18176;49.502;11.754;2023-02-23T11:52:58;96633.25;;;15.73;59.53
21185;BME280;18176;49.502;11.754;2023-02-23T11:57:00;96625.78;;;15.35;61.03
21185;BME280;18176;49.502;11.754;2023-02-23T12:01:07;96626.03;;;15.13;62.39
21185;BME280;18176;49.502;11.754;2023-02-23T12:05:21;96629.47;;;15.09;63.13
21185;BME280;18176;49.502;11.754;2023-02-23T12:09:27;96628.88;;;14.71;64.94
21185;BME280;18176;49.502;11.754;2023-02-23T12:13:35;96625.75;;;15.20;63.84
21185;BME280;18176;49.502;11.754;2023-02-23T12:17:50;96635.56;;;14.79;65.29
21185;BME280;18176;49.502;11.754;2023-02-23T12:22:01;96633.94;;;14.68;65.93
21185;BME280;18176;49.502;11.754;2023-02-23T12:26:10;96649.41;;;14.14;68.33
21185;BME280;18176;49.502;11.754;2023-02-23T12:30:22;96638.72;;;14.04;69.27
21185;BME280;18176;49.502;11.754;2023-02-23T12:34:35;96639.72;;;13.98;70.24
21185;BME280;18176;49.502;11.754;2023-02-23T12:38:48;96637.78;;;14.30;68.63
21185;BME280;18176;49.502;11.754;2023-02-23T12:42:59;96637.03;;;13.93;70.23
21185;BME280;18176;49.502;11.754;2023-02-23T12:47:12;96631.84;;;14.13;69.41
21185;BME280;18176;49.502;11.754;2023-02-23T12:51:26;96630.81;;;14.24;68.76
21185;BME280;18176;49.502;11.754;2023-02-23T12:55:39;96626.13;;;14.36;68.69
21185;BME280;18176;49.502;11.754;2023-02-23T13:00:21;96620.31;;;14.54;67.12
21185;BME280;18176;49.502;11.754;2023-02-23T13:09:35;96593.97;;;14.73;66.03
21185;BME280;18176;49.502;11.754;2023-02-23T13:13:52;96594.53;;;15.20;64.46
21185;BME280;18176;49.502;11.754;2023-02-23T13:18:02;96593.72;;;15.25;63.96
21185;BME280;18176;49.502;11.754;2023-02-23T13:22:36;96595.06;;;15.07;64.92
21185;BME280;18176;49.502;11.754;2023-02-23T13:26:51;96590.84;;;15.47;63.77
21185;BME280;18176;49.502;11.754;2023-02-23T13:30:55;96588.94;;;15.57;63.10
21185;BME280;18176;49.502;11.754;2023-02-23T13:34:58;96585.22;;;15.63;62.52
21185;BME280;18176;49.502;11.754;2023-02-23T13:39:34;96583.59;;;15.27;63.69
21185;BME280;18176;49.502;11.754;2023-02-23T13:43:49;96584.66;;;15.36;63.37
21185;BME280;18176;49.502;11.754;2023-02-23T13:48:00;96587.31;;;15.11;63.81
21185;BME280;18176;49.502;11.754;2023-02-23T13:52:27;96589.19;;;15.20;63.54
21185;BME280;18176;49.502;11.754;2023-02-23T13:56:35;96582.00;;;15.16;63.90
21185;BME280;18176;49.502;11.754;2023-02-23T14:00:54;96576.66;;;15.21;63.19
21185;BME280;18176;49.502;11.754;2023-02-23T14:05:06;96585.22;;;15.48;62.63
21185;BME280;18176;49.502;11.754;2023-02-23T14:09:26;96580.94;;;15.17;63.04
21185;BME280;18176;49.502;11.754;2023-02-23T14:13:31;96576.94;;;15.19;63.19
21185;BME280;18176;49.502;11.754;2023-02-23T14:17:41;96580.13;;;15.41;62.78
21185;BME280;18176;49.502;11.754;2023-02-23T14:21:50;96578.78;;;15.29;63.11
21185;BME280;18176;49.502;11.754;2023-02-23T14:26:14;96576.63;;;15.36;63.03
21185;BME280;18176;49.502;11.754;2023-02-23T14:30:26;96569.97;;;15.38;62.54
21185;BME280;18176;49.502;11.754;2023-02-23T14:34:49;96571.34;;;15.56;61.94
21185;BME280;18176;49.502;11.754;2023-02-23T14:38:57;96573.94;;;15.81;61.17
21185;BME280;18176;49.502;11.754;2023-02-23T14:43:02;96562.75;;;15.59;61.58
21185;BME280;18176;49.502;11.754;2023-02-23T14:47:12;96567.56;;;15.57;61.34
21185;BME280;18176;49.502;11.754;2023-02-23T14:51:24;96568.38;;;15.53;61.36
21185;BME280;18176;49.502;11.754;2023-02-23T14:55:29;96559.28;;;15.59;61.28
21185;BME280;18176;49.502;11.754;2023-02-23T14:59:37;96554.78;;;14.99;63.17
21185;BME280;18176;49.502;11.754;2023-02-23T15:03:38;96559.00;;;14.64;64.16
21185;BME280;18176;49.502;11.754;2023-02-23T15:07:42;96565.94;;;14.65;64.32
21185;BME280;18176;49.502;11.754;2023-02-23T15:11:47;96566.25;;;14.89;63.27
21185;BME280;18176;49.502;11.754;2023-02-23T15:15:51;96561.63;;;14.49;64.25
21185;BME280;18176;49.502;11.754;2023-02-23T15:19:56;96561.38;;;14.56;64.39
21185;BME280;18176;49.502;11.754;2023-02-23T15:24:15;96550.50;;;14.72;63.79
21185;BME280;18176;49.502;11.754;2023-02-23T15:28:24;96549.94;;;14.86;63.09
21185;BME280;18176;49.502;11.754;2023-02-23T15:32:25;96552.09;;;14.84;63.88
21185;BME280;18176;49.502;11.754;2023-02-23T15:36:31;96551.56;;;14.97;63.54
21185;BME280;18176;49.502;11.754;2023-02-23T15:40:42;96555.56;;;14.99;63.84
21185;BME280;18176;49.502;11.754;2023-02-23T15:44:43;96548.38;;;14.85;64.76
21185;BME280;18176;49.502;11.754;2023-02-23T15:48:50;96549.41;;;14.78;64.87
21185;BME280;18176;49.502;11.754;2023-02-23T15:52:59;96557.97;;;15.06;64.27
21185;BME280;18176;49.502;11.754;2023-02-23T15:57:17;96562.78;;;14.89;64.50
21185;BME280;18176;49.502;11.754;2023-02-23T16:01:22;96557.69;;;14.92;64.95
21185;BME280;18176;49.502;11.754;2023-02-23T16:05:27;96563.84;;;14.77;65.85
21185;BME280;18176;49.502;11.754;2023-02-23T16:09:49;96569.13;;;14.52;67.55
21185;BME280;18176;49.502;11.754;2023-02-23T16:13:56;96563.13;;;14.20;68.76
21185;BME280;18176;49.502;11.754;2023-02-23T16:18:02;96562.06;;;14.26;68.78
21185;BME280;18176;49.502;11.754;2023-02-23T16:22:05;96562.03;;;14.16;69.23
21185;BME280;18176;49.502;11.754;2023-02-23T16:26:10;96556.44;;;14.13;69.86
21185;BME280;18176;49.502;11.754;2023-02-23T16:30:34;96561.47;;;14.09;69.93
21185;BME280;18176;49.502;11.754;2023-02-23T16:34:47;96555.13;;;14.25;69.34
21185;BME280;18176;49.502;11.754;2023-02-23T16:38:59;96555.63;;;14.12;69.80
21185;BME280;18176;49.502;11.754;2023-02-23T16:43:03;96559.38;;;14.11;70.04
21185;BME280;18176;49.502;11.754;2023-02-23T16:47:34;96567.28;;;13.96;70.84
21185;BME280;18176;49.502;11.754;2023-02-23T16:51:44;96574.97;;;13.87;71.19
21185;BME280;18176;49.502;11.754;2023-02-23T16:55:51;96569.44;;;13.99;71.45
21185;BME280;18176;49.502;11.754;2023-02-23T16:59:54;96574.75;;;13.99;71.50
21185;BME280;18176;49.502;11.754;2023-02-23T17:04:00;96559.25;;;13.91;71.46
21185;BME280;18176;49.502;11.754;2023-02-23T17:08:01;96574.78;;;14.04;71.45
21185;BME280;18176;49.502;11.754;2023-02-23T17:12:03;96583.31;;;14.06;70.75
21185;BME280;18176;49.502;11.754;2023-02-23T17:16:06;96576.97;;;14.17;70.24
21185;BME280;18176;49.502;11.754;2023-02-23T17:20:11;96588.41;;;14.13;70.58
21185;BME280;18176;49.502;11.754;2023-02-23T17:24:13;96581.69;;;14.05;70.62
21185;BME280;18176;49.502;11.754;2023-02-23T17:28:15;96586.53;;;14.13;70.30
21185;BME280;18176;49.502;11.754;2023-02-23T17:32:16;96580.88;;;13.94;70.86
21185;BME280;18176;49.502;11.754;2023-02-23T17:36:24;96583.63;;;13.63;72.69
21185;BME280;18176;49.502;11.754;2023-02-23T17:40:26;96590.66;;;13.84;72.20
21185;BME280;18176;49.502;11.754;2023-02-23T17:44:27;96589.63;;;13.90;72.28
21185;BME280;18176;49.502;11.754;2023-02-23T17:48:32;96594.84;;;13.70;72.97
21185;BME280;18176;49.502;11.754;2023-02-23T17:52:39;96591.50;;;13.89;72.77
21185;BME280;18176;49.502;11.754;2023-02-23T17:56:43;96582.00;;;13.62;73.38
21185;BME280;18176;49.502;11.754;2023-02-23T18:00:44;96585.16;;;13.54;73.92
21185;BME280;18176;49.502;11.754;2023-02-23T18:04:46;96583.47;;;13.43;74.97
21185;BME280;18176;49.502;11.754;2023-02-23T18:08:49;96583.47;;;13.38;75.87
21185;BME280;18176;49.502;11.754;2023-02-23T18:12:52;96583.78;;;13.09;77.25
21185;BME280;18176;49.502;11.754;2023-02-23T18:16:53;96581.75;;;13.21;77.06
21185;BME280;18176;49.502;11.754;2023-02-23T18:20:57;96584.13;;;12.91;78.79
21185;BME280;18176;49.502;11.754;2023-02-23T18:25:07;96586.72;;;12.86;79.67
21185;BME280;18176;49.502;11.754;2023-02-23T18:29:09;96578.19;;;12.84;79.87
21185;BME280;18176;49.502;11.754;2023-02-23T18:33:12;96553.56;;;12.67;79.88
21185;BME280;18176;49.502;11.754;2023-02-23T18:37:14;96576.13;;;12.91;79.73
21185;BME280;18176;49.502;11.754;2023-02-23T18:41:28;96582.44;;;12.85;80.14
21185;BME280;18176;49.502;11.754;2023-02-23T18:45:30;96577.72;;;12.92;79.84
21185;BME280;18176;49.502;11.754;2023-02-23T18:49:33;96578.03;;;12.96;79.44
21185;BME280;18176;49.502;11.754;2023-02-23T18:53:37;96572.63;;;12.86;80.46
21185;BME280;18176;49.502;11.754;2023-02-23T18:57:42;96574.94;;;12.77;80.43
21185;BME280;18176;49.502;11.754;2023-02-23T19:01:43;96568.34;;;12.85;80.47
21185;BME280;18176;49.502;11.754;2023-02-23T19:05:46;96551.56;;;12.79;80.50
21185;BME280;18176;49.502;11.754;2023-02-23T19:09:50;96564.81;;;12.74;80.88
21185;BME280;18176;49.502;11.754;2023-02-23T19:13:56;96558.06;;;12.66;80.68
21185;BME280;18176;49.502;11.754;2023-02-23T19:18:02;96551.22;;;12.71;79.77
21185;BME280;18176;49.502;11.754;2023-02-23T19:22:04;96531.81;;;12.17;80.89
21185;BME280;18176;49.502;11.754;2023-02-23T19:26:05;96549.97;;;12.25;80.98
21185;BME280;18176;49.502;11.754;2023-02-23T19:30:12;96558.44;;;12.22;81.68
21185;BME280;18176;49.502;11.754;2023-02-23T19:34:13;96539.84;;;12.22;81.58
21185;BME280;18176;49.502;11.754;2023-02-23T19:38:15;96549.34;;;12.18;81.09
21185;BME280;18176;49.502;11.754;2023-02-23T19:42:15;96556.66;;;12.06;81.85
21185;BME280;18176;49.502;11.754;2023-02-23T19:46:21;96558.22;;;12.07;82.25
21185;BME280;18176;49.502;11.754;2023-02-23T19:50:25;96548.63;;;12.01;83.16
21185;BME280;18176;49.502;11.754;2023-02-23T19:54:25;96546.63;;;12.13;82.42
21185;BME280;18176;49.502;11.754;2023-02-23T19:58:31;96554.22;;;12.26;82.06
21185;BME280;18176;49.502;11.754;2023-02-23T20:02:36;96556.66;;;12.06;83.72
21185;BME280;18176;49.502;11.754;2023-02-23T20:06:43;96545.66;;;11.97;84.31
21185;BME280;18176;49.502;11.754;2023-02-23T20:10:46;96558.31;;;12.12;83.54
21185;BME280;18176;49.502;11.754;2023-02-23T20:14:46;96557.56;;;12.16;83.18
21185;BME280;18176;49.502;11.754;2023-02-23T20:18:52;96562.25;;;12.09;84.03
21185;BME280;18176;49.502;11.754;2023-02-23T20:22:54;96551.75;;;12.19;83.68
21185;BME280;18176;49.502;11.754;2023-02-23T20:26:55;96552.56;;;12.20;83.61
21185;BME280;18176;49.502;11.754;2023-02-23T20:30:58;96544.66;;;12.25;83.33
21185;BME280;18176;49.502;11.754;2023-02-23T20:35:17;96535.50;;;12.16;83.19
21185;BME280;18176;49.502;11.754;2023-02-23T20:39:26;96548.13;;;12.04;84.06
21185;BME280;18176;49.502;11.754;2023-02-23T20:43:27;96546.63;;;12.13;83.96
21185;BME280;18176;49.502;11.754;2023-02-23T20:47:28;96549.28;;;12.13;83.72
21185;BME280;18176;49.502;11.754;2023-02-23T20:51:31;96538.81;;;12.01;83.76
21185;BME280;18176;49.502;11.754;2023-02-23T20:55:32;96536.34;;;11.94;83.83
21185;BME280;18176;49.502;11.754;2023-02-23T20:59:34;96534.66;;;11.88;83.75
21185;BME280;18176;49.502;11.754;2023-02-23T21:03:36;96530.72;;;11.69;84.11
21185;BME280;18176;49.502;11.754;2023-02-23T21:07:41;96545.47;;;11.65;84.69
21185;BME280;18176;49.502;11.754;2023-02-23T21:11:42;96545.47;;;11.65;84.51
21185;BME280;18176;49.502;11.754;2023-02-23T21:15:53;96539.84;;;11.78;83.97
21185;BME280;18176;49.502;11.754;2023-02-23T21:20:00;96536.41;;;11.78;83.29
21185;BME280;18176;49.502;11.754;2023-02-23T21:24:07;96538.44;;;11.71;83.68
21185;BME280;18176;49.502;11.754;2023-02-23T21:28:07;96534.41;;;11.68;84.25
21185;BME280;18176;49.502;11.754;2023-02-23T21:32:11;96524.91;;;11.72;83.73
21185;BME280;18176;49.502;11.754;2023-02-23T21:36:13;96533.41;;;11.74;83.48
21185;BME280;18176;49.502;11.754;2023-02-23T21:40:17;96533.06;;;11.87;82.60
21185;BME280;18176;49.502;11.754;2023-02-23T21:44:18;96539.84;;;11.78;83.20
21185;BME280;18176;49.502;11.754;2023-02-23T21:48:21;96527.97;;;11.64;83.78
21185;BME280;18176;49.502;11.754;2023-02-23T21:52:22;96538.59;;;11.64;83.94